Time;durP1;ratioP1;P1;durP2;ratioP2;P2;SDS_P1;SDS_P2;PMS_P1;PMS_P2;Temp;Humidity;BMP_temperature;BMP_pressure;BME280_temperature;BME280_humidity;BME280_pressure;Samples;Min_cycle;Max_cycle;Signal;HPM_P1;HPM_P2
2023/06/23 00:00:53;;;;;;;9.23;3.92;;;21.20;99.90;;;;;;5029920;28;20064;-70
2023/06/23 00:03:18;;;;;;;6.60;3.83;;;21.20;99.90;;;;;;5031061;28;20037;-72
2023/06/23 00:05:44;;;;;;;7.03;3.88;;;21.20;99.90;;;;;;5030820;28;20392;-71
2023/06/23 00:08:10;;;;;;;8.48;5.07;;;21.10;99.90;;;;;;5030661;28;20036;-72
2023/06/23 00:10:35;;;;;;;6.43;3.85;;;21.10;99.90;;;;;;5031732;28;20063;-70
2023/06/23 00:13:02;;;;;;;7.82;4.47;;;21.10;99.90;;;;;;5046234;28;20046;-71
2023/06/23 00:15:28;;;;;;;9.18;3.95;;;21.10;99.90;;;;;;5030735;28;20041;-72
2023/06/23 00:17:54;;;;;;;8.75;4.70;;;21.00;99.90;;;;;;5029756;28;20094;-70
2023/06/23 00:20:22;;;;;;;10.05;3.97;;;21.00;99.90;;;;;;5030552;28;20114;-71
2023/06/23 00:22:47;;;;;;;6.70;3.60;;;21.00;99.90;;;;;;5046331;28;20022;-70
2023/06/23 00:25:13;;;;;;;8.48;4.32;;;21.10;99.90;;;;;;5031157;28;20028;-70
2023/06/23 00:27:41;;;;;;;8.07;4.13;;;21.00;99.90;;;;;;5030763;28;20163;-70
2023/06/23 00:30:07;;;;;;;;;;;21.00;99.90;;;;;;5046273;28;20069;-71
2023/06/23 00:32:33;;;;;;;5.65;3.90;;;20.90;99.90;;;;;;5030421;28;19960;-71
2023/06/23 00:34:59;;;;;;;8.88;4.60;;;21.00;99.90;;;;;;5030383;28;20105;-71
2023/06/23 00:37:25;;;;;;;13.63;4.60;;;21.00;99.90;;;;;;5031129;28;20029;-71
2023/06/23 00:39:51;;;;;;;6.93;4.18;;;21.00;99.90;;;;;;5030788;28;20375;-71
2023/06/23 00:42:17;;;;;;;12.07;5.28;;;21.00;99.90;;;;;;5030166;28;20038;-71
2023/06/23 00:44:43;;;;;;;9.50;4.60;;;20.90;99.90;;;;;;5030300;28;20375;-71
2023/06/23 00:47:09;;;;;;;8.75;4.30;;;21.00;99.90;;;;;;5030404;28;20179;-71
2023/06/23 00:49:35;;;;;;;10.40;4.30;;;20.90;99.90;;;;;;5029846;28;20184;-72
2023/06/23 00:52:07;;;;;;;10.70;4.28;;;20.90;99.90;;;;;;5030363;28;20367;-71
2023/06/23 00:54:35;;;;;;;11.65;4.72;;;20.90;99.90;;;;;;5030466;28;20030;-70
2023/06/23 00:57:04;;;;;;;14.13;4.43;;;20.90;99.90;;;;;;5030518;28;20030;-71
2023/06/23 00:59:30;;;;;;;7.35;5.13;;;20.90;99.90;;;;;;5029449;28;20026;-71
2023/06/23 01:01:59;;;;;;;10.10;4.95;;;20.90;99.90;;;;;;5030401;28;20078;-70
2023/06/23 01:04:29;;;;;;;11.52;4.75;;;21.00;99.90;;;;;;5031051;28;20052;-71
2023/06/23 01:07:06;;;;;;;12.63;4.70;;;21.00;99.90;;;;;;5030670;28;20053;-72
2023/06/23 01:09:49;;;;;;;8.32;5.30;;;21.00;99.90;;;;;;5030631;28;20401;-72
2023/06/23 01:12:32;;;;;;;13.75;4.65;;;21.00;99.90;;;;;;5030269;28;20187;-72
2023/06/23 01:15:07;;;;;;;9.52;5.05;;;20.90;99.90;;;;;;5045568;28;20110;-71
2023/06/23 01:18:02;;;;;;;11.73;4.70;;;21.00;99.90;;;;;;5029133;28;20474;-72
2023/06/23 01:20:33;;;;;;;8.18;4.93;;;21.00;99.90;;;;;;5014865;28;20348;-72
2023/06/23 01:23:02;;;;;;;8.75;4.90;;;20.90;99.90;;;;;;5030899;28;20068;-71
2023/06/23 01:25:55;;;;;;;8.15;5.10;;;20.90;99.90;;;;;;5031241;28;20335;-71
2023/06/23 01:28:38;;;;;;;13.98;5.63;;;20.90;99.90;;;;;;5031212;28;20352;-70
2023/06/23 01:31:13;;;;;;;8.57;4.80;;;20.90;99.90;;;;;;5045601;28;20080;-72
2023/06/23 01:33:48;;;;;;;13.27;5.50;;;20.90;99.90;;;;;;5030196;28;20026;-71
2023/06/23 01:36:26;;;;;;;8.63;4.78;;;20.80;99.90;;;;;;5053296;28;20025;-72
2023/06/23 01:38:57;;;;;;;7.32;4.50;;;20.80;99.90;;;;;;5069882;28;20029;-71
2023/06/23 01:41:28;;;;;;;12.05;5.47;;;20.80;99.90;;;;;;5068746;28;20090;-71
2023/06/23 01:43:55;;;;;;;10.52;5.05;;;20.90;99.90;;;;;;5069756;28;20025;-71
2023/06/23 01:46:25;;;;;;;11.88;5.90;;;20.90;99.90;;;;;;5070646;28;20104;-71
2023/06/23 01:48:57;;;;;;;10.55;5.20;;;20.90;99.90;;;;;;5070442;28;20041;-71
2023/06/23 01:51:26;;;;;;;8.25;5.35;;;20.80;99.90;;;;;;5070049;28;20086;-70
2023/06/23 01:53:54;;;;;;;6.50;5.03;;;20.80;99.90;;;;;;5069733;28;20047;-70
2023/06/23 01:56:22;;;;;;;9.73;5.38;;;20.80;99.90;;;;;;5073188;28;20036;-70
2023/06/23 01:58:48;;;;;;;;;;;20.80;99.90;;;;;;5073755;28;20053;-73
2023/06/23 02:01:15;;;;;;;10.65;5.50;;;20.80;99.90;;;;;;5072667;28;19912;-71
2023/06/23 02:03:41;;;;;;;8.57;5.03;;;20.80;99.90;;;;;;5073360;28;20033;-71
2023/06/23 02:06:10;;;;;;;13.20;5.80;;;20.80;99.90;;;;;;5073274;28;20668;-71
2023/06/23 02:08:37;;;;;;;9.13;5.25;;;20.90;99.90;;;;;;5073415;28;20459;-71
2023/06/23 02:11:04;;;;;;;13.27;6.47;;;20.90;99.90;;;;;;5074081;28;20056;-70
2023/06/23 02:13:31;;;;;;;13.55;6.97;;;20.80;99.90;;;;;;5073685;28;20031;-70
2023/06/23 02:16:00;;;;;;;13.07;6.77;;;20.80;99.90;;;;;;5073527;28;20159;-71
2023/06/23 02:18:27;;;;;;;13.75;6.85;;;20.90;99.90;;;;;;5073664;28;20349;-71
2023/06/23 02:20:54;;;;;;;8.35;6.30;;;20.90;99.90;;;;;;5072993;28;20074;-72
2023/06/23 02:23:21;;;;;;;9.45;6.07;;;20.90;99.90;;;;;;5073078;28;20032;-71
2023/06/23 02:25:48;;;;;;;13.70;7.10;;;21.00;99.90;;;;;;5072814;28;20036;-71
2023/06/23 02:28:14;;;;;;;10.70;7.90;;;21.00;99.90;;;;;;5073478;28;20017;-71
2023/06/23 02:30:43;;;;;;;13.25;7.88;;;21.00;99.90;;;;;;5071207;28;20062;-72
2023/06/23 02:33:09;;;;;;;16.10;8.63;;;21.00;99.90;;;;;;5072755;28;20107;-71
2023/06/23 02:35:34;;;;;;;11.60;8.60;;;20.90;99.90;;;;;;5073012;28;20032;-71
2023/06/23 02:38:04;;;;;;;13.23;8.93;;;21.00;99.90;;;;;;5071554;28;20033;-72
2023/06/23 02:40:33;;;;;;;13.35;9.23;;;20.90;99.90;;;;;;5074170;28;20032;-71
2023/06/23 02:43:12;;;;;;;13.93;9.82;;;20.90;99.90;;;;;;5073626;28;20099;-71
2023/06/23 02:45:41;;;;;;;13.07;9.48;;;21.00;99.90;;;;;;5072783;28;20059;-71
2023/06/23 02:48:15;;;;;;;12.32;9.10;;;21.00;99.90;;;;;;5072524;28;20106;-71
2023/06/23 02:50:43;;;;;;;12.48;9.10;;;20.90;99.90;;;;;;5072805;28;20044;-71
2023/06/23 02:53:13;;;;;;;15.68;10.07;;;20.90;99.90;;;;;;5072804;28;20104;-71
2023/06/23 02:55:44;;;;;;;14.65;10.05;;;20.90;99.90;;;;;;5073534;28;20078;-70
2023/06/23 02:58:14;;;;;;;15.18;10.30;;;20.90;99.90;;;;;;5071776;28;20040;-71
2023/06/23 03:00:40;;;;;;;12.57;10.52;;;21.00;99.90;;;;;;5071197;28;20063;-72
2023/06/23 03:03:17;;;;;;;11.45;9.80;;;20.90;99.90;;;;;;5071178;28;20474;-71
2023/06/23 03:05:43;;;;;;;11.23;9.23;;;20.90;99.90;;;;;;5070884;28;20044;-72
2023/06/23 03:08:09;;;;;;;13.20;9.50;;;20.90;99.90;;;;;;5071858;28;20106;-71
2023/06/23 03:10:35;;;;;;;16.60;10.45;;;20.90;99.90;;;;;;5072437;28;20500;-70
2023/06/23 03:13:01;;;;;;;15.52;11.50;;;20.90;99.90;;;;;;5071746;28;20111;-71
2023/06/23 03:15:28;;;;;;;16.45;11.48;;;20.90;99.90;;;;;;5072645;28;20473;-73
2023/06/23 03:18:00;;;;;;;17.80;11.70;;;20.90;99.90;;;;;;5069587;28;20033;-71
2023/06/23 03:20:33;;;;;;;14.77;11.30;;;20.90;99.90;;;;;;5071666;28;20059;-73
2023/06/23 03:23:06;;;;;;;17.45;12.25;;;20.80;99.90;;;;;;5071918;28;20021;-70
2023/06/23 03:25:32;;;;;;;16.10;12.82;;;20.80;99.90;;;;;;5072380;28;20044;-71
2023/06/23 03:28:05;;;;;;;17.95;13.20;;;20.80;99.90;;;;;;5071611;28;20086;-71
2023/06/23 03:30:35;;;;;;;18.98;11.82;;;20.70;99.90;;;;;;5070267;28;20047;-70
2023/06/23 03:33:06;;;;;;;14.55;11.95;;;20.60;99.90;;;;;;5071307;28;20067;-70
2023/06/23 03:35:39;;;;;;;15.02;12.18;;;20.60;99.90;;;;;;5071765;28;20115;-71
2023/06/23 03:38:11;;;;;;;17.08;12.05;;;20.50;99.90;;;;;;5071296;28;20094;-70
2023/06/23 03:40:43;;;;;;;15.38;12.02;;;20.50;99.90;;;;;;5072083;28;20020;-70
2023/06/23 03:43:17;;;;;;;17.67;12.82;;;20.40;99.90;;;;;;5071601;28;20041;-70
2023/06/23 03:45:45;;;;;;;18.45;12.50;;;20.40;99.90;;;;;;5070917;28;20222;-71
2023/06/23 03:48:13;;;;;;;17.75;12.68;;;20.40;99.90;;;;;;5069956;28;20028;-71
2023/06/23 03:50:41;;;;;;;17.85;11.73;;;20.30;99.90;;;;;;5071281;28;20111;-71
2023/06/23 03:53:09;;;;;;;22.08;12.98;;;20.40;99.90;;;;;;5053934;28;20363;-71
2023/06/23 03:55:36;;;;;;;;;;;20.30;99.90;;;;;;5072449;28;20030;-73
2023/06/23 03:58:05;;;;;;;16.27;12.65;;;20.30;99.90;;;;;;5078903;28;19995;-71
2023/06/23 04:00:34;;;;;;;19.63;12.90;;;20.30;99.90;;;;;;5078140;28;20052;-72
2023/06/23 04:03:01;;;;;;;16.58;12.95;;;20.30;99.90;;;;;;5076452;28;20025;-71
2023/06/23 04:05:30;;;;;;;18.90;13.27;;;20.30;99.90;;;;;;5076479;28;20036;-71
2023/06/23 04:07:59;;;;;;;20.50;13.15;;;20.30;99.90;;;;;;5076686;28;20024;-71
2023/06/23 04:10:28;;;;;;;19.38;13.27;;;20.30;99.90;;;;;;5082396;28;20032;-70
2023/06/23 04:12:56;;;;;;;17.38;13.20;;;20.30;99.90;;;;;;5080234;28;20036;-72
2023/06/23 04:15:22;;;;;;;;;;;20.40;99.90;;;;;;5076540;28;20051;-73
2023/06/23 04:17:51;;;;;;;18.67;13.57;;;20.40;99.90;;;;;;5076156;28;20412;-70
2023/06/23 04:20:18;;;;;;;18.85;12.68;;;20.40;99.90;;;;;;5075041;28;20044;-71
2023/06/23 04:22:45;;;;;;;17.17;12.27;;;20.30;99.90;;;;;;5073658;28;20028;-71
2023/06/23 04:25:12;;;;;;;17.25;12.98;;;20.30;99.90;;;;;;5075297;28;20119;-71
2023/06/23 04:27:40;;;;;;;15.73;11.40;;;20.30;99.90;;;;;;5077374;28;20037;-70
2023/06/23 04:30:07;;;;;;;15.68;11.75;;;20.30;99.90;;;;;;5075654;28;20144;-71
2023/06/23 04:32:35;;;;;;;18.67;11.35;;;20.20;99.90;;;;;;5074988;28;20032;-72
2023/06/23 04:35:01;;;;;;;14.07;10.98;;;20.20;99.90;;;;;;5075463;28;20035;-71
2023/06/23 04:37:37;;;;;;;15.23;11.35;;;20.20;99.90;;;;;;5073255;28;20020;-71
2023/06/23 04:40:17;;;;;;;14.18;9.88;;;20.20;99.90;;;;;;5073223;28;20108;-72
2023/06/23 04:42:53;;;;;;;10.93;7.88;;;20.20;99.90;;;;;;5071238;28;20040;-71
2023/06/23 04:45:26;;;;;;;5.78;4.20;;;20.20;99.90;;;;;;5070478;28;20091;-71
2023/06/23 04:47:56;;;;;;;5.18;3.42;;;20.20;99.90;;;;;;5071218;28;20135;-71
2023/06/23 04:50:25;;;;;;;4.00;3.33;;;20.10;99.90;;;;;;5071782;28;20060;-72
2023/06/23 04:52:55;;;;;;;7.47;2.67;;;20.00;99.90;;;;;;5071321;28;20142;-72
2023/06/23 04:55:29;;;;;;;2.67;2.38;;;19.80;99.90;;;;;;5069724;28;20021;-70
2023/06/23 04:57:58;;;;;;;4.10;2.53;;;19.90;99.90;;;;;;5070759;28;20093;-72
2023/06/23 05:00:25;;;;;;;8.52;2.80;;;19.80;99.90;;;;;;5070363;28;20021;-71
2023/06/23 05:02:55;;;;;;;5.70;2.30;;;19.80;99.90;;;;;;5070167;28;20044;-72
2023/06/23 05:05:24;;;;;;;5.43;2.25;;;19.90;99.90;;;;;;5068793;28;20138;-72
2023/06/23 05:07:52;;;;;;;4.65;2.45;;;19.80;99.90;;;;;;5070096;28;20103;-70
2023/06/23 05:10:19;;;;;;;;;;;19.80;99.90;;;;;;5071143;28;20482;-73
2023/06/23 05:12:47;;;;;;;3.33;2.00;;;19.80;99.90;;;;;;5069891;28;20369;-71
2023/06/23 05:15:14;;;;;;;5.63;2.05;;;19.70;99.90;;;;;;5070085;28;20344;-71
2023/06/23 05:17:42;;;;;;;7.43;2.42;;;19.60;99.90;;;;;;5070051;28;20036;-71
2023/06/23 05:20:09;;;;;;;6.10;2.47;;;19.50;99.90;;;;;;5070731;28;20043;-72
2023/06/23 05:22:37;;;;;;;4.07;2.70;;;19.40;99.90;;;;;;5070832;28;20048;-73
2023/06/23 05:25:04;;;;;;;4.05;2.63;;;19.40;99.90;;;;;;5070533;28;20486;-74
2023/06/23 05:27:33;;;;;;;4.45;2.70;;;19.40;99.90;;;;;;5070378;28;20367;-72
2023/06/23 05:30:01;;;;;;;6.88;2.70;;;19.40;99.90;;;;;;5071312;28;20040;-72
2023/06/23 05:32:28;;;;;;;;;;;19.40;99.90;;;;;;5074243;28;20520;-74
2023/06/23 05:34:56;;;;;;;;;;;19.40;99.90;;;;;;5074002;28;19908;-73
2023/06/23 05:37:24;;;;;;;5.55;2.60;;;19.30;99.90;;;;;;5074425;28;19908;-73
2023/06/23 05:39:50;;;;;;;3.90;2.40;;;19.30;99.90;;;;;;5067560;28;20471;-72
2023/06/23 05:42:19;;;;;;;5.05;2.83;;;19.20;99.90;;;;;;5086565;28;20041;-73
2023/06/23 05:44:45;;;;;;;6.82;3.33;;;19.20;99.90;;;;;;5078540;28;20460;-74
2023/06/23 05:47:15;;;;;;;4.47;2.15;;;19.20;99.90;;;;;;5033753;28;20367;-72
2023/06/23 05:49:43;;;;;;;4.30;2.20;;;19.20;99.90;;;;;;5033251;28;20037;-73
2023/06/23 05:52:13;;;;;;;3.15;2.10;;;19.20;99.90;;;;;;5033846;28;20048;-73
2023/06/23 05:54:42;;;;;;;5.57;2.90;;;19.10;99.90;;;;;;5033804;28;20464;-72
2023/06/23 05:57:39;;;;;;;4.20;2.50;;;19.20;99.90;;;;;;5033490;28;20068;-73
2023/06/23 06:00:13;;;;;;;4.35;3.10;;;19.10;99.90;;;;;;5023526;28;20090;-69
2023/06/23 06:02:43;;;;;;;6.78;3.70;;;19.00;99.90;;;;;;5032832;28;20041;-68
2023/06/23 06:05:11;;;;;;;9.05;3.45;;;19.10;99.90;;;;;;5048527;28;20474;-68
2023/06/23 06:07:38;;;;;;;11.63;3.30;;;19.10;99.90;;;;;;5033654;28;20108;-70
2023/06/23 06:10:09;;;;;;;8.30;3.50;;;19.10;99.90;;;;;;5032869;28;20026;-69
2023/06/23 06:12:37;;;;;;;6.50;3.30;;;19.10;99.90;;;;;;5048441;28;20494;-69
2023/06/23 06:15:06;;;;;;;7.07;3.58;;;19.20;99.90;;;;;;5032076;28;20041;-70
2023/06/23 06:17:33;;;;;;;8.63;2.95;;;19.20;99.90;;;;;;5031234;28;20150;-70
2023/06/23 06:20:02;;;;;;;3.67;2.97;;;19.30;99.90;;;;;;5032783;28;20167;-69
2023/06/23 06:22:31;;;;;;;5.75;3.10;;;19.30;99.90;;;;;;5033146;28;20152;-69
2023/06/23 06:24:58;;;;;;;7.15;3.10;;;19.30;99.90;;;;;;5032682;28;20459;-68
2023/06/23 06:27:26;;;;;;;5.28;3.22;;;19.20;99.90;;;;;;5047716;28;20329;-68
2023/06/23 06:29:54;;;;;;;6.90;3.38;;;19.10;99.90;;;;;;5032716;28;20061;-68
2023/06/23 06:32:21;;;;;;;6.68;4.05;;;19.10;99.90;;;;;;5032437;28;20136;-70
2023/06/23 06:34:48;;;;;;;6.00;4.17;;;19.00;99.90;;;;;;5032600;28;20130;-72
2023/06/23 06:37:16;;;;;;;6.18;3.92;;;18.90;99.90;;;;;;5033010;28;20073;-71
2023/06/23 06:39:43;;;;;;;9.63;4.43;;;18.90;99.90;;;;;;5032686;28;20056;-70
2023/06/23 06:42:09;;;;;;;6.88;4.32;;;18.90;99.90;;;;;;5032521;28;20355;-69
2023/06/23 06:44:35;;;;;;;7.40;4.82;;;18.80;99.90;;;;;;5032570;28;20096;-69
2023/06/23 06:47:03;;;;;;;8.05;4.45;;;18.70;99.90;;;;;;5032845;28;20113;-71
2023/06/23 06:49:33;;;;;;;6.20;4.18;;;18.80;99.90;;;;;;5032572;28;20701;-69
2023/06/23 06:51:59;;;;;;;11.40;4.57;;;18.70;99.90;;;;;;5032484;28;20467;-68
2023/06/23 06:54:26;;;;;;;10.93;4.90;;;18.90;99.90;;;;;;5032387;28;20040;-70
2023/06/23 06:56:54;;;;;;;6.57;4.22;;;18.90;99.90;;;;;;5031760;28;20487;-70
2023/06/23 06:59:20;;;;;;;9.40;4.75;;;18.90;99.90;;;;;;5031662;28;20037;-69
2023/06/23 07:01:47;;;;;;;7.72;4.15;;;18.90;99.90;;;;;;5032142;28;20029;-69
2023/06/23 07:04:14;;;;;;;5.82;4.18;;;18.90;99.90;;;;;;5032306;28;20034;-69
2023/06/23 07:06:40;;;;;;;18.13;4.75;;;18.80;99.90;;;;;;5031744;28;20030;-70
2023/06/23 07:09:06;;;;;;;21.25;6.45;;;18.80;99.90;;;;;;5031793;28;20087;-71
2023/06/23 07:11:32;;;;;;;6.72;4.18;;;18.80;99.90;;;;;;5047091;28;20103;-70
2023/06/23 07:13:59;;;;;;;7.78;4.40;;;18.80;99.90;;;;;;5046989;28;20029;-70
2023/06/23 07:16:30;;;;;;;7.90;4.80;;;18.70;99.90;;;;;;5047519;28;20348;-70
2023/06/23 07:18:56;;;;;;;6.38;4.65;;;18.80;99.90;;;;;;5031798;28;20041;-71
2023/06/23 07:21:22;;;;;;;10.43;4.80;;;18.70;99.90;;;;;;5031840;28;20029;-70
2023/06/23 07:23:48;;;;;;;7.90;5.25;;;18.70;99.90;;;;;;5031137;28;20051;-71
2023/06/23 07:26:14;;;;;;;8.73;5.07;;;18.70;99.90;;;;;;5031173;28;20049;-70
2023/06/23 07:28:40;;;;;;;7.07;5.35;;;18.60;99.90;;;;;;5030901;28;20053;-67
2023/06/23 07:31:05;;;;;;;8.35;5.13;;;18.70;99.90;;;;;;5031098;28;20298;-70
2023/06/23 07:33:31;;;;;;;11.50;5.85;;;18.70;99.90;;;;;;5031264;28;20068;-71
2023/06/23 07:35:57;;;;;;;9.25;5.97;;;18.60;99.90;;;;;;5046639;28;20329;-71
2023/06/23 07:38:22;;;;;;;8.93;5.53;;;18.50;99.90;;;;;;5046449;28;20352;-73
2023/06/23 07:40:48;;;;;;;7.43;5.45;;;18.60;99.90;;;;;;5031142;28;20060;-73
2023/06/23 07:43:14;;;;;;;7.82;5.65;;;18.70;99.90;;;;;;5031411;28;20021;-72
2023/06/23 07:45:40;;;;;;;12.38;7.20;;;18.70;99.90;;;;;;5031129;28;20241;-72
2023/06/23 07:48:05;;;;;;;9.18;5.78;;;18.60;99.90;;;;;;5030882;28;20026;-72
2023/06/23 07:50:31;;;;;;;8.68;5.93;;;18.70;99.90;;;;;;5029876;28;20040;-70
2023/06/23 07:52:56;;;;;;;10.63;5.90;;;18.70;99.90;;;;;;5030061;28;20033;-70
2023/06/23 07:55:22;;;;;;;8.68;6.38;;;18.70;99.90;;;;;;5031644;28;20494;-70
2023/06/23 07:57:51;;;;;;;10.27;6.60;;;18.80;99.90;;;;;;5030922;28;20033;-68
2023/06/23 08:00:18;;;;;;;10.43;6.53;;;18.80;99.90;;;;;;5031021;28;20025;-69
2023/06/23 08:02:43;;;;;;;10.55;6.70;;;18.90;99.90;;;;;;5030882;28;20033;-71
2023/06/23 08:05:09;;;;;;;11.35;6.28;;;18.90;99.90;;;;;;5031003;28;20018;-71
2023/06/23 08:07:35;;;;;;;8.98;5.95;;;18.90;99.90;;;;;;5031197;28;20564;-72
2023/06/23 08:10:01;;;;;;;9.05;6.28;;;18.70;99.90;;;;;;5030712;28;20041;-70
2023/06/23 08:12:27;;;;;;;9.30;6.40;;;18.80;99.90;;;;;;5030582;28;20044;-72
2023/06/23 08:14:52;;;;;;;8.70;6.32;;;18.80;99.90;;;;;;5030696;28;20136;-71
2023/06/23 08:17:18;;;;;;;9.65;6.50;;;18.80;99.90;;;;;;5030658;28;20041;-71
2023/06/23 08:19:44;;;;;;;7.90;5.63;;;18.80;99.90;;;;;;5030514;28;20029;-71
2023/06/23 08:22:10;;;;;;;8.75;6.65;;;18.80;99.90;;;;;;5031002;28;20037;-71
2023/06/23 08:24:36;;;;;;;23.35;16.33;;;18.80;99.90;;;;;;5030231;28;20040;-71
2023/06/23 08:27:01;;;;;;;8.73;6.65;;;18.80;99.90;;;;;;5030434;28;20087;-72
2023/06/23 08:29:27;;;;;;;8.27;6.68;;;18.80;99.90;;;;;;5046153;28;20367;-70
2023/06/23 08:31:53;;;;;;;12.82;7.82;;;18.80;99.90;;;;;;5045706;28;20467;-71
2023/06/23 08:34:18;;;;;;;48.22;30.63;;;18.90;99.90;;;;;;5030773;28;20017;-70
2023/06/23 08:36:44;;;;;;;19.45;14.70;;;18.90;99.90;;;;;;5029002;28;20120;-69
2023/06/23 08:39:10;;;;;;;30.17;17.63;;;19.00;99.90;;;;;;5030218;28;20026;-70
2023/06/23 08:41:41;;;;;;;29.98;13.93;;;19.00;99.90;;;;;;5030466;28;20037;-71
2023/06/23 08:44:10;;;;;;;19.77;9.55;;;19.00;99.90;;;;;;5030175;28;20117;-71
2023/06/23 08:46:41;;;;;;;29.38;9.95;;;19.10;99.90;;;;;;5030496;28;20091;-68
2023/06/23 08:49:13;;;;;;;21.23;9.32;;;19.10;99.90;;;;;;5030316;28;20030;-68
2023/06/23 08:51:40;;;;;;;13.55;8.02;;;19.10;99.90;;;;;;5030326;28;20090;-70
2023/06/23 08:54:05;;;;;;;12.20;7.85;;;19.10;99.90;;;;;;5030244;28;20026;-68
2023/06/23 08:56:32;;;;;;;19.08;11.18;;;19.10;99.90;;;;;;5030079;28;20053;-69
2023/06/23 08:58:58;;;;;;;14.65;8.77;;;19.20;99.90;;;;;;5031205;28;20056;-69
2023/06/23 09:01:24;;;;;;;10.05;6.88;;;19.20;99.90;;;;;;5030600;28;20034;-69
2023/06/23 09:03:50;;;;;;;10.38;7.13;;;19.10;99.90;;;;;;5047291;28;20030;-67
2023/06/23 09:06:16;;;;;;;10.73;6.93;;;19.20;99.90;;;;;;5034223;28;20057;-68
2023/06/23 09:08:42;;;;;;;9.82;6.72;;;19.10;99.90;;;;;;5033996;28;20530;-71
2023/06/23 09:11:07;;;;;;;10.48;6.80;;;19.10;99.90;;;;;;5033926;28;20048;-70
2023/06/23 09:13:40;;;;;;;14.23;7.32;;;19.10;99.90;;;;;;5033542;28;20044;-68
2023/06/23 09:16:08;;;;;;;41.75;10.60;;;19.10;99.90;;;;;;5049689;28;20366;-73
2023/06/23 09:18:38;;;;;;;;;;;19.10;99.90;;;;;;5033485;28;20041;-69
2023/06/23 09:21:05;;;;;;;21.75;7.07;;;19.10;99.90;;;;;;5034029;28;19909;-69
2023/06/23 09:23:31;;;;;;;15.57;6.68;;;19.10;99.90;;;;;;5034109;28;20060;-69
2023/06/23 09:25:57;;;;;;;23.75;7.38;;;19.10;99.90;;;;;;5033700;28;20021;-70
2023/06/23 09:28:26;;;;;;;9.13;5.95;;;19.10;99.90;;;;;;5034210;28;20025;-71
2023/06/23 09:30:53;;;;;;;11.85;6.60;;;19.10;99.90;;;;;;5033693;28;20211;-72
2023/06/23 09:33:20;;;;;;;8.60;5.93;;;19.00;99.90;;;;;;5034067;28;20048;-71
2023/06/23 09:35:53;;;;;;;9.23;6.53;;;19.00;99.90;;;;;;5034082;28;20371;-71
2023/06/23 09:38:22;;;;;;;11.40;6.82;;;18.90;99.90;;;;;;5033792;28;20121;-72
2023/06/23 09:40:47;;;;;;;13.32;6.35;;;18.90;99.90;;;;;;5033911;28;20032;-72
2023/06/23 09:43:15;;;;;;;9.82;6.30;;;18.90;99.90;;;;;;5033794;28;20021;-72
2023/06/23 09:45:41;;;;;;;15.20;7.40;;;19.00;99.90;;;;;;5032311;28;20030;-71
2023/06/23 09:48:28;;;;;;;12.40;7.15;;;19.00;99.90;;;;;;5033438;28;20052;-71
2023/06/23 09:50:59;;;;;;;18.70;7.35;;;18.90;99.90;;;;;;5032804;28;20167;-70
2023/06/23 09:53:25;;;;;;;10.32;6.60;;;18.90;99.90;;;;;;5033439;28;20041;-71
2023/06/23 09:55:51;;;;;;;13.50;6.57;;;18.90;99.90;;;;;;5049261;28;20032;-72
2023/06/23 09:58:17;;;;;;;10.38;7.07;;;18.90;99.90;;;;;;5033900;28;20506;-72
2023/06/23 10:00:43;;;;;;;11.25;7.13;;;18.90;99.90;;;;;;5048623;28;20117;-71
2023/06/23 10:03:09;;;;;;;9.90;6.40;;;18.90;99.90;;;;;;5050830;28;20041;-73
2023/06/23 10:05:36;;;;;;;12.02;7.47;;;18.80;99.90;;;;;;5051453;28;20029;-72
2023/06/23 10:08:07;;;;;;;11.00;6.80;;;18.90;99.90;;;;;;5051908;28;20056;-73
2023/06/23 10:10:33;;;;;;;11.02;7.18;;;19.00;99.90;;;;;;5053647;28;20510;-71
2023/06/23 10:12:58;;;;;;;11.50;6.72;;;19.00;99.90;;;;;;5085308;28;20041;-72
2023/06/23 10:15:25;;;;;;;13.30;7.65;;;19.10;99.90;;;;;;5052171;28;20040;-73
2023/06/23 10:17:52;;;;;;;10.45;7.10;;;19.10;99.90;;;;;;5052014;28;20064;-72
2023/06/23 10:20:18;;;;;;;11.68;6.97;;;19.10;99.90;;;;;;5051861;28;20037;-71
2023/06/23 10:22:46;;;;;;;13.32;8.10;;;19.10;99.90;;;;;;5052063;28;20021;-72
2023/06/23 10:25:13;;;;;;;17.73;8.13;;;19.10;99.90;;;;;;5053843;28;20450;-72
2023/06/23 10:27:41;;;;;;;10.27;7.00;;;19.00;99.90;;;;;;5051718;28;20021;-72
2023/06/23 10:30:10;;;;;;;10.30;7.38;;;19.00;99.90;;;;;;5051914;28;20037;-72
2023/06/23 10:32:37;;;;;;;13.52;7.22;;;18.90;99.90;;;;;;5084366;28;20041;-70
2023/06/23 10:35:10;;;;;;;10.75;6.95;;;19.00;99.90;;;;;;5047440;28;20036;-73
2023/06/23 10:37:36;;;;;;;12.35;7.75;;;19.00;99.90;;;;;;5065210;28;20078;-71
2023/06/23 10:40:04;;;;;;;10.20;6.97;;;18.90;99.90;;;;;;5052766;28;20428;-70
2023/06/23 10:42:34;;;;;;;11.07;7.57;;;18.90;99.90;;;;;;5052389;28;20029;-72
2023/06/23 10:45:01;;;;;;;12.90;7.47;;;18.90;99.90;;;;;;5052284;28;20461;-71
2023/06/23 10:47:27;;;;;;;12.25;7.15;;;19.00;99.90;;;;;;5052323;28;20041;-71
2023/06/23 10:49:54;;;;;;;12.95;7.60;;;19.00;99.90;;;;;;5084577;28;20122;-71
2023/06/23 10:52:20;;;;;;;12.35;7.85;;;19.00;99.90;;;;;;5085136;28;20071;-71
2023/06/23 10:54:45;;;;;;;11.15;7.20;;;18.90;99.90;;;;;;5052092;28;20080;-69
2023/06/23 10:57:13;;;;;;;12.25;7.85;;;19.00;99.90;;;;;;5051815;28;20051;-70
2023/06/23 10:59:58;;;;;;;15.38;8.25;;;19.10;99.90;;;;;;5052017;28;20044;-69
2023/06/23 11:02:25;;;;;;;16.38;7.82;;;19.10;99.90;;;;;;5050931;28;20048;-70
2023/06/23 11:04:53;;;;;;;12.23;7.32;;;19.10;99.90;;;;;;5052177;28;20025;-69
2023/06/23 11:07:19;;;;;;;12.35;7.70;;;19.10;99.90;;;;;;5051568;28;20017;-72
2023/06/23 11:09:54;;;;;;;18.95;8.95;;;19.10;99.90;;;;;;5051613;28;20095;-71
2023/06/23 11:12:40;;;;;;;12.02;8.48;;;19.20;99.90;;;;;;5051823;28;20052;-70
2023/06/23 11:15:08;;;;;;;15.60;9.68;;;19.20;99.90;;;;;;5050534;28;20044;-68
2023/06/23 11:18:00;;;;;;;18.30;9.80;;;19.20;99.90;;;;;;5052658;28;20112;-71
2023/06/23 11:20:28;;;;;;;13.70;9.07;;;19.20;99.90;;;;;;5051636;28;20353;-70
2023/06/23 11:23:07;;;;;;;15.68;9.82;;;19.20;99.90;;;;;;5052573;28;20044;-72
2023/06/23 11:25:49;;;;;;;17.17;10.98;;;19.20;99.90;;;;;;5051890;28;20031;-72
2023/06/23 11:28:34;;;;;;;16.05;10.10;;;19.30;99.90;;;;;;5033033;28;20444;-72
2023/06/23 11:31:00;;;;;;;17.55;10.70;;;19.40;99.90;;;;;;5050849;28;20474;-70
2023/06/23 11:33:33;;;;;;;18.30;12.23;;;19.40;99.90;;;;;;5052550;28;20044;-70
2023/06/23 11:36:01;;;;;;;19.10;12.95;;;19.50;99.90;;;;;;5052596;28;20466;-71
2023/06/23 11:38:29;;;;;;;19.90;14.88;;;19.50;99.90;;;;;;5052313;28;20029;-73
2023/06/23 11:40:59;;;;;;;23.48;16.23;;;19.60;99.90;;;;;;5052358;28;20029;-72
2023/06/23 11:43:25;;;;;;;21.40;13.23;;;19.70;99.90;;;;;;5052512;28;20021;-71
2023/06/23 11:45:55;;;;;;;22.65;12.95;;;19.70;99.90;;;;;;5051094;28;20242;-70
2023/06/23 11:48:25;;;;;;;16.70;12.63;;;19.60;99.90;;;;;;5052376;28;20040;-70
2023/06/23 11:50:52;;;;;;;19.00;12.90;;;19.70;99.90;;;;;;5052020;28;20032;-72
2023/06/23 11:53:18;;;;;;;21.17;12.73;;;19.70;99.90;;;;;;5052559;28;20057;-69
2023/06/23 11:55:44;;;;;;;21.02;14.32;;;19.80;99.90;;;;;;5051914;28;20057;-68
2023/06/23 11:58:10;;;;;;;22.17;12.63;;;19.80;99.90;;;;;;5051940;28;20131;-67
2023/06/23 12:00:36;;;;;;;17.60;12.82;;;19.80;99.90;;;;;;5051939;28;20120;-71
2023/06/23 12:03:01;;;;;;;24.95;14.70;;;19.80;99.90;;;;;;5051861;28;20116;-69
2023/06/23 12:05:27;;;;;;;17.17;13.15;;;19.90;99.90;;;;;;5051935;28;20043;-71
2023/06/23 12:07:55;;;;;;;27.48;18.17;;;20.00;99.90;;;;;;5051076;28;20117;-69
2023/06/23 12:10:21;;;;;;;;;;;20.10;99.90;;;;;;5052766;28;20023;-70
2023/06/23 12:12:48;;;;;;;39.67;31.00;;;20.20;99.90;;;;;;5051420;28;20008;-71
2023/06/23 12:15:15;;;;;;;23.55;16.25;;;20.20;99.90;;;;;;5051858;28;20462;-70
2023/06/23 12:17:43;;;;;;;19.05;13.38;;;20.20;99.90;;;;;;5051664;28;20091;-70
2023/06/23 12:20:09;;;;;;;19.38;13.38;;;20.20;99.90;;;;;;5051301;28;20514;-69
2023/06/23 12:22:36;;;;;;;21.02;13.07;;;20.10;99.90;;;;;;5052092;28;20036;-69
2023/06/23 12:25:04;;;;;;;23.33;14.07;;;20.10;99.90;;;;;;5051312;28;20080;-72
2023/06/23 12:27:30;;;;;;;18.73;13.38;;;20.10;99.90;;;;;;5051324;28;20774;-70
2023/06/23 12:29:56;;;;;;;21.60;13.32;;;20.10;99.90;;;;;;5051489;28;20148;-68
2023/06/23 12:32:29;;;;;;;19.15;13.38;;;20.20;99.90;;;;;;5051140;28;20556;-70
2023/06/23 12:34:56;;;;;;;18.85;12.52;;;20.20;99.90;;;;;;5051557;28;20188;-71
2023/06/23 12:37:22;;;;;;;21.38;13.07;;;20.20;99.90;;;;;;5051979;28;20048;-70
2023/06/23 12:39:52;;;;;;;17.85;12.68;;;20.20;99.90;;;;;;5050913;28;20064;-69
2023/06/23 12:42:19;;;;;;;21.15;12.45;;;20.30;99.90;;;;;;5049770;28;20052;-70
2023/06/23 12:44:45;;;;;;;20.17;12.07;;;20.20;99.90;;;;;;5051286;28;20029;-71
2023/06/23 12:47:11;;;;;;;19.73;12.82;;;20.20;99.90;;;;;;5050238;28;20025;-69